sensor_id;sensor_type;location;lat;lon;timestamp;P1;durP1;ratioP1;P2;durP2;ratioP2
2458;SDS011;1241;50.920;6.936;2023-04-19T00:01:24;10.60;;;9.50;;
2458;SDS011;1241;50.920;6.936;2023-04-19T00:03:50;9.98;;;8.48;;
2458;SDS011;1241;50.920;6.936;2023-04-19T00:06:16;8.67;;;7.57;;
2458;SDS011;1241;50.920;6.936;2023-04-19T00:08:42;9.70;;;8.33;;
2458;SDS011;1241;50.920;6.936;2023-04-19T00:11:08;20.13;;;17.23;;
2458;SDS011;1241;50.920;6.936;2023-04-19T00:13:34;9.75;;;8.82;;
2458;SDS011;1241;50.920;6.936;2023-04-19T00:16:00;10.63;;;7.40;;
2458;SDS011;1241;50.920;6.936;2023-04-19T00:18:25;9.87;;;8.87;;
2458;SDS011;1241;50.920;6.936;2023-04-19T00:20:51;9.43;;;8.50;;
2458;SDS011;1241;50.920;6.936;2023-04-19T00:23:17;11.20;;;9.10;;
2458;SDS011;1241;50.920;6.936;2023-04-19T00:25:44;19.67;;;16.30;;
2458;SDS011;1241;50.920;6.936;2023-04-19T00:28:10;13.57;;;11.32;;
2458;SDS011;1241;50.920;6.936;2023-04-19T00:30:36;12.03;;;10.07;;
2458;SDS011;1241;50.920;6.936;2023-04-19T00:33:01;9.50;;;8.60;;
2458;SDS011;1241;50.920;6.936;2023-04-19T00:35:27;9.73;;;8.73;;
2458;SDS011;1241;50.920;6.936;2023-04-19T00:37:53;10.93;;;7.10;;
2458;SDS011;1241;50.920;6.936;2023-04-19T00:40:18;11.97;;;9.70;;
2458;SDS011;1241;50.920;6.936;2023-04-19T00:42:44;11.50;;;10.30;;
2458;SDS011;1241;50.920;6.936;2023-04-19T00:45:10;10.45;;;8.70;;
2458;SDS011;1241;50.920;6.936;2023-04-19T00:47:36;14.27;;;12.27;;
2458;SDS011;1241;50.920;6.936;2023-04-19T00:50:03;11.00;;;9.90;;
2458;SDS011;1241;50.920;6.936;2023-04-19T00:52:30;9.52;;;8.52;;
2458;SDS011;1241;50.920;6.936;2023-04-19T00:54:57;11.18;;;9.70;;
2458;SDS011;1241;50.920;6.936;2023-04-19T00:57:23;12.35;;;11.05;;
2458;SDS011;1241;50.920;6.936;2023-04-19T00:59:50;15.60;;;13.93;;
2458;SDS011;1241;50.920;6.936;2023-04-19T01:02:16;10.25;;;9.18;;
2458;SDS011;1241;50.920;6.936;2023-04-19T01:04:42;9.97;;;8.70;;
2458;SDS011;1241;50.920;6.936;2023-04-19T01:07:08;10.45;;;9.35;;
2458;SDS011;1241;50.920;6.936;2023-04-19T01:09:35;9.75;;;8.82;;
2458;SDS011;1241;50.920;6.936;2023-04-19T01:12:04;8.07;;;7.38;;
2458;SDS011;1241;50.920;6.936;2023-04-19T01:14:30;9.25;;;8.35;;
2458;SDS011;1241;50.920;6.936;2023-04-19T01:16:56;9.10;;;8.17;;
2458;SDS011;1241;50.920;6.936;2023-04-19T01:19:22;17.13;;;14.40;;
2458;SDS011;1241;50.920;6.936;2023-04-19T01:21:47;11.35;;;10.18;;
2458;SDS011;1241;50.920;6.936;2023-04-19T01:24:14;15.97;;;13.93;;
2458;SDS011;1241;50.920;6.936;2023-04-19T01:26:39;11.50;;;10.30;;
2458;SDS011;1241;50.920;6.936;2023-04-19T01:29:05;8.17;;;7.57;;
2458;SDS011;1241;50.920;6.936;2023-04-19T01:31:31;6.67;;;5.80;;
2458;SDS011;1241;50.920;6.936;2023-04-19T01:33:56;8.37;;;7.47;;
2458;SDS011;1241;50.920;6.936;2023-04-19T01:36:22;13.03;;;9.83;;
2458;SDS011;1241;50.920;6.936;2023-04-19T01:38:48;8.85;;;7.85;;
2458;SDS011;1241;50.920;6.936;2023-04-19T01:41:14;9.85;;;8.65;;
2458;SDS011;1241;50.920;6.936;2023-04-19T01:43:40;16.20;;;13.05;;
2458;SDS011;1241;50.920;6.936;2023-04-19T01:46:07;8.27;;;7.57;;
2458;SDS011;1241;50.920;6.936;2023-04-19T01:48:32;9.57;;;8.50;;
2458;SDS011;1241;50.920;6.936;2023-04-19T01:50:58;11.00;;;8.87;;
2458;SDS011;1241;50.920;6.936;2023-04-19T01:53:24;7.40;;;6.70;;
2458;SDS011;1241;50.920;6.936;2023-04-19T01:55:50;10.32;;;9.10;;
2458;SDS011;1241;50.920;6.936;2023-04-19T01:58:16;15.02;;;13.20;;
2458;SDS011;1241;50.920;6.936;2023-04-19T02:00:43;12.43;;;10.90;;
2458;SDS011;1241;50.920;6.936;2023-04-19T02:03:08;13.48;;;10.85;;
2458;SDS011;1241;50.920;6.936;2023-04-19T02:05:34;15.93;;;12.53;;
2458;SDS011;1241;50.920;6.936;2023-04-19T02:08:00;14.90;;;11.03;;
2458;SDS011;1241;50.920;6.936;2023-04-19T02:10:29;7.50;;;6.55;;
2458;SDS011;1241;50.920;6.936;2023-04-19T02:12:54;12.80;;;10.80;;
2458;SDS011;1241;50.920;6.936;2023-04-19T02:15:20;23.83;;;17.80;;
2458;SDS011;1241;50.920;6.936;2023-04-19T02:17:46;12.10;;;10.43;;
2458;SDS011;1241;50.920;6.936;2023-04-19T02:20:12;12.30;;;9.87;;
2458;SDS011;1241;50.920;6.936;2023-04-19T02:22:38;10.03;;;8.17;;
2458;SDS011;1241;50.920;6.936;2023-04-19T02:25:03;14.00;;;12.50;;
2458;SDS011;1241;50.920;6.936;2023-04-19T02:27:29;12.50;;;10.27;;
2458;SDS011;1241;50.920;6.936;2023-04-19T02:29:55;8.63;;;7.73;;
2458;SDS011;1241;50.920;6.936;2023-04-19T02:32:22;7.15;;;6.45;;
2458;SDS011;1241;50.920;6.936;2023-04-19T02:34:48;8.67;;;7.70;;
2458;SDS011;1241;50.920;6.936;2023-04-19T02:37:13;12.77;;;11.00;;
2458;SDS011;1241;50.920;6.936;2023-04-19T02:39:39;11.90;;;9.97;;
2458;SDS011;1241;50.920;6.936;2023-04-19T02:42:06;9.05;;;7.85;;
2458;SDS011;1241;50.920;6.936;2023-04-19T02:44:32;10.23;;;8.30;;
2458;SDS011;1241;50.920;6.936;2023-04-19T02:46:58;8.63;;;7.83;;
2458;SDS011;1241;50.920;6.936;2023-04-19T02:49:23;11.47;;;9.67;;
2458;SDS011;1241;50.920;6.936;2023-04-19T02:51:50;8.82;;;7.90;;
2458;SDS011;1241;50.920;6.936;2023-04-19T02:54:17;11.18;;;10.07;;
2458;SDS011;1241;50.920;6.936;2023-04-19T02:56:44;13.27;;;10.13;;
2458;SDS011;1241;50.920;6.936;2023-04-19T02:59:09;9.97;;;8.97;;
2458;SDS011;1241;50.920;6.936;2023-04-19T03:01:35;11.63;;;10.43;;
2458;SDS011;1241;50.920;6.936;2023-04-19T03:04:04;16.85;;;13.82;;
2458;SDS011;1241;50.920;6.936;2023-04-19T03:06:30;10.43;;;9.40;;
2458;SDS011;1241;50.920;6.936;2023-04-19T03:08:56;11.40;;;10.27;;
2458;SDS011;1241;50.920;6.936;2023-04-19T03:11:22;12.80;;;11.40;;
2458;SDS011;1241;50.920;6.936;2023-04-19T03:13:47;16.77;;;12.57;;
2458;SDS011;1241;50.920;6.936;2023-04-19T03:16:13;12.90;;;11.60;;
2458;SDS011;1241;50.920;6.936;2023-04-19T03:18:42;14.60;;;11.02;;
2458;SDS011;1241;50.920;6.936;2023-04-19T03:21:08;12.68;;;11.30;;
2458;SDS011;1241;50.920;6.936;2023-04-19T03:23:53;13.70;;;12.30;;
2458;SDS011;1241;50.920;6.936;2023-04-19T03:26:19;14.55;;;13.15;;
2458;SDS011;1241;50.920;6.936;2023-04-19T03:28:49;13.80;;;12.38;;
2458;SDS011;1241;50.920;6.936;2023-04-19T03:31:21;15.02;;;12.60;;
2458;SDS011;1241;50.920;6.936;2023-04-19T03:33:49;14.80;;;12.65;;
2458;SDS011;1241;50.920;6.936;2023-04-19T03:36:16;14.93;;;13.45;;
2458;SDS011;1241;50.920;6.936;2023-04-19T03:38:44;13.07;;;11.73;;
2458;SDS011;1241;50.920;6.936;2023-04-19T03:41:22;18.30;;;13.70;;
2458;SDS011;1241;50.920;6.936;2023-04-19T03:44:20;16.40;;;14.70;;
2458;SDS011;1241;50.920;6.936;2023-04-19T03:46:46;16.25;;;12.77;;
2458;SDS011;1241;50.920;6.936;2023-04-19T03:49:15;19.25;;;17.17;;
2458;SDS011;1241;50.920;6.936;2023-04-19T03:51:44;18.42;;;15.13;;
2458;SDS011;1241;50.920;6.936;2023-04-19T03:54:10;14.90;;;11.80;;
2458;SDS011;1241;50.920;6.936;2023-04-19T03:56:36;14.50;;;12.95;;
2458;SDS011;1241;50.920;6.936;2023-04-19T03:59:02;12.27;;;10.97;;
2458;SDS011;1241;50.920;6.936;2023-04-19T04:01:31;13.85;;;12.43;;
2458;SDS011;1241;50.920;6.936;2023-04-19T04:03:57;21.35;;;16.88;;
2458;SDS011;1241;50.920;6.936;2023-04-19T04:06:23;17.45;;;15.02;;
2458;SDS011;1241;50.920;6.936;2023-04-19T04:08:49;15.77;;;11.50;;
2458;SDS011;1241;50.920;6.936;2023-04-19T04:11:15;13.33;;;12.03;;
2458;SDS011;1241;50.920;6.936;2023-04-19T04:13:42;16.63;;;13.05;;
2458;SDS011;1241;50.920;6.936;2023-04-19T04:16:13;14.20;;;12.73;;
2458;SDS011;1241;50.920;6.936;2023-04-19T04:18:39;14.10;;;12.40;;
2458;SDS011;1241;50.920;6.936;2023-04-19T04:21:08;14.52;;;13.13;;
2458;SDS011;1241;50.920;6.936;2023-04-19T04:23:37;15.15;;;13.55;;
2458;SDS011;1241;50.920;6.936;2023-04-19T04:26:05;14.43;;;12.82;;
2458;SDS011;1241;50.920;6.936;2023-04-19T04:29:01;14.73;;;12.90;;
2458;SDS011;1241;50.920;6.936;2023-04-19T04:31:28;14.57;;;13.15;;
2458;SDS011;1241;50.920;6.936;2023-04-19T04:33:54;14.80;;;13.10;;
2458;SDS011;1241;50.920;6.936;2023-04-19T04:36:21;16.10;;;14.45;;
2458;SDS011;1241;50.920;6.936;2023-04-19T04:38:48;16.48;;;13.45;;
2458;SDS011;1241;50.920;6.936;2023-04-19T04:41:14;14.70;;;13.10;;
2458;SDS011;1241;50.920;6.936;2023-04-19T04:43:40;16.20;;;14.18;;
2458;SDS011;1241;50.920;6.936;2023-04-19T04:46:07;17.77;;;12.95;;
2458;SDS011;1241;50.920;6.936;2023-04-19T04:48:37;17.85;;;15.55;;
2458;SDS011;1241;50.920;6.936;2023-04-19T04:51:04;14.68;;;13.02;;
2458;SDS011;1241;50.920;6.936;2023-04-19T04:53:31;15.75;;;13.75;;
2458;SDS011;1241;50.920;6.936;2023-04-19T04:55:59;15.27;;;13.80;;
2458;SDS011;1241;50.920;6.936;2023-04-19T04:58:24;13.87;;;12.50;;
2458;SDS011;1241;50.920;6.936;2023-04-19T05:00:58;16.65;;;15.02;;
2458;SDS011;1241;50.920;6.936;2023-04-19T05:03:25;18.13;;;14.63;;
2458;SDS011;1241;50.920;6.936;2023-04-19T05:05:55;16.35;;;14.60;;
2458;SDS011;1241;50.920;6.936;2023-04-19T05:08:23;13.07;;;11.73;;
2458;SDS011;1241;50.920;6.936;2023-04-19T05:10:50;15.13;;;13.68;;
2458;SDS011;1241;50.920;6.936;2023-04-19T05:13:17;15.43;;;13.85;;
2458;SDS011;1241;50.920;6.936;2023-04-19T05:15:42;17.00;;;15.17;;
2458;SDS011;1241;50.920;6.936;2023-04-19T05:18:08;15.23;;;13.67;;
2458;SDS011;1241;50.920;6.936;2023-04-19T05:20:34;19.27;;;13.85;;
2458;SDS011;1241;50.920;6.936;2023-04-19T05:23:08;25.25;;;21.75;;
2458;SDS011;1241;50.920;6.936;2023-04-19T05:25:36;16.00;;;14.13;;
2458;SDS011;1241;50.920;6.936;2023-04-19T05:28:01;25.77;;;17.40;;
2458;SDS011;1241;50.920;6.936;2023-04-19T05:30:35;15.02;;;13.63;;
2458;SDS011;1241;50.920;6.936;2023-04-19T05:33:01;15.90;;;14.20;;
2458;SDS011;1241;50.920;6.936;2023-04-19T05:35:28;18.25;;;16.33;;
2458;SDS011;1241;50.920;6.936;2023-04-19T05:37:54;17.30;;;13.40;;
2458;SDS011;1241;50.920;6.936;2023-04-19T05:40:20;18.07;;;13.27;;
2458;SDS011;1241;50.920;6.936;2023-04-19T05:42:47;16.15;;;13.25;;
2458;SDS011;1241;50.920;6.936;2023-04-19T05:45:15;26.88;;;20.70;;
2458;SDS011;1241;50.920;6.936;2023-04-19T05:47:42;20.20;;;14.50;;
2458;SDS011;1241;50.920;6.936;2023-04-19T05:50:08;21.87;;;19.57;;
2458;SDS011;1241;50.920;6.936;2023-04-19T05:52:38;16.52;;;14.10;;
2458;SDS011;1241;50.920;6.936;2023-04-19T05:55:04;14.07;;;12.60;;
2458;SDS011;1241;50.920;6.936;2023-04-19T05:57:32;14.80;;;12.43;;
2458;SDS011;1241;50.920;6.936;2023-04-19T05:59:58;14.40;;;12.93;;
2458;SDS011;1241;50.920;6.936;2023-04-19T06:02:38;15.60;;;14.00;;
2458;SDS011;1241;50.920;6.936;2023-04-19T06:05:04;16.58;;;14.65;;
2458;SDS011;1241;50.920;6.936;2023-04-19T06:07:32;13.98;;;12.40;;
2458;SDS011;1241;50.920;6.936;2023-04-19T06:09:57;15.53;;;13.07;;
2458;SDS011;1241;50.920;6.936;2023-04-19T06:12:23;18.00;;;13.80;;
2458;SDS011;1241;50.920;6.936;2023-04-19T06:14:49;17.13;;;15.23;;
2458;SDS011;1241;50.920;6.936;2023-04-19T06:17:16;19.55;;;13.65;;
2458;SDS011;1241;50.920;6.936;2023-04-19T06:19:47;16.48;;;14.10;;
2458;SDS011;1241;50.920;6.936;2023-04-19T06:22:13;21.60;;;18.10;;
2458;SDS011;1241;50.920;6.936;2023-04-19T06:24:39;18.33;;;15.03;;
2458;SDS011;1241;50.920;6.936;2023-04-19T06:27:04;17.23;;;13.03;;
2458;SDS011;1241;50.920;6.936;2023-04-19T06:29:30;13.07;;;11.73;;
2458;SDS011;1241;50.920;6.936;2023-04-19T06:31:56;23.80;;;20.40;;
2458;SDS011;1241;50.920;6.936;2023-04-19T06:34:21;16.03;;;14.17;;
2458;SDS011;1241;50.920;6.936;2023-04-19T06:36:47;15.37;;;11.60;;
2458;SDS011;1241;50.920;6.936;2023-04-19T06:39:13;14.93;;;13.37;;
2458;SDS011;1241;50.920;6.936;2023-04-19T06:41:39;13.15;;;11.15;;
2458;SDS011;1241;50.920;6.936;2023-04-19T06:44:05;14.40;;;12.10;;
2458;SDS011;1241;50.920;6.936;2023-04-19T06:46:31;19.60;;;15.00;;
2458;SDS011;1241;50.920;6.936;2023-04-19T06:48:56;13.27;;;10.77;;
2458;SDS011;1241;50.920;6.936;2023-04-19T06:51:22;12.90;;;10.70;;
2458;SDS011;1241;50.920;6.936;2023-04-19T06:53:48;13.20;;;11.20;;
2458;SDS011;1241;50.920;6.936;2023-04-19T06:56:15;12.88;;;9.70;;
2458;SDS011;1241;50.920;6.936;2023-04-19T06:58:40;13.17;;;10.57;;
2458;SDS011;1241;50.920;6.936;2023-04-19T07:01:06;10.90;;;9.27;;
2458;SDS011;1241;50.920;6.936;2023-04-19T07:03:32;10.03;;;8.30;;
2458;SDS011;1241;50.920;6.936;2023-04-19T07:05:57;10.83;;;9.73;;
2458;SDS011;1241;50.920;6.936;2023-04-19T07:08:23;16.17;;;11.40;;
2458;SDS011;1241;50.920;6.936;2023-04-19T07:10:49;10.38;;;9.18;;
2458;SDS011;1241;50.920;6.936;2023-04-19T07:13:15;9.00;;;8.10;;
2458;SDS011;1241;50.920;6.936;2023-04-19T07:15:41;8.90;;;8.00;;
2458;SDS011;1241;50.920;6.936;2023-04-19T07:18:06;8.80;;;7.87;;
2458;SDS011;1241;50.920;6.936;2023-04-19T07:20:35;9.65;;;8.75;;
2458;SDS011;1241;50.920;6.936;2023-04-19T07:23:00;10.03;;;9.03;;
2458;SDS011;1241;50.920;6.936;2023-04-19T07:25:26;9.70;;;8.73;;
2458;SDS011;1241;50.920;6.936;2023-04-19T07:27:52;15.03;;;10.27;;
2458;SDS011;1241;50.920;6.936;2023-04-19T07:30:19;10.80;;;8.63;;
2458;SDS011;1241;50.920;6.936;2023-04-19T07:32:44;8.80;;;8.00;;
2458;SDS011;1241;50.920;6.936;2023-04-19T07:35:10;13.13;;;11.03;;
2458;SDS011;1241;50.920;6.936;2023-04-19T07:37:36;12.83;;;8.97;;
2458;SDS011;1241;50.920;6.936;2023-04-19T09:42:16;7.30;;;5.30;;
2458;SDS011;1241;50.920;6.936;2023-04-19T09:44:55;6.60;;;5.40;;
2458;SDS011;1241;50.920;6.936;2023-04-19T09:47:22;6.75;;;6.00;;
2458;SDS011;1241;50.920;6.936;2023-04-19T09:52:31;8.17;;;5.93;;
2458;SDS011;1241;50.920;6.936;2023-04-19T09:55:01;6.70;;;6.20;;
2458;SDS011;1241;50.920;6.936;2023-04-19T09:57:31;7.65;;;6.22;;
2458;SDS011;1241;50.920;6.936;2023-04-19T09:59:58;5.85;;;5.13;;
2458;SDS011;1241;50.920;6.936;2023-04-19T10:02:25;7.78;;;5.30;;
2458;SDS011;1241;50.920;6.936;2023-04-19T10:04:56;6.50;;;5.80;;
2458;SDS011;1241;50.920;6.936;2023-04-19T10:07:23;7.88;;;6.05;;
2458;SDS011;1241;50.920;6.936;2023-04-19T10:09:49;6.28;;;5.70;;
2458;SDS011;1241;50.920;6.936;2023-04-19T10:12:18;6.15;;;5.13;;
2458;SDS011;1241;50.920;6.936;2023-04-19T10:14:46;6.55;;;5.95;;
2458;SDS011;1241;50.920;6.936;2023-04-19T10:17:12;5.78;;;5.28;;
2458;SDS011;1241;50.920;6.936;2023-04-19T10:19:38;7.32;;;5.20;;
2458;SDS011;1241;50.920;6.936;2023-04-19T10:22:05;6.05;;;5.32;;
2458;SDS011;1241;50.920;6.936;2023-04-19T10:24:32;8.52;;;5.95;;
2458;SDS011;1241;50.920;6.936;2023-04-19T10:32:35;8.63;;;5.80;;
2458;SDS011;1241;50.920;6.936;2023-04-19T10:35:21;7.00;;;6.18;;
2458;SDS011;1241;50.920;6.936;2023-04-19T10:43:22;5.60;;;5.10;;
2458;SDS011;1241;50.920;6.936;2023-04-19T10:45:49;6.55;;;5.53;;
2458;SDS011;1241;50.920;6.936;2023-04-19T10:51:15;6.45;;;5.82;;
2458;SDS011;1241;50.920;6.936;2023-04-19T10:56:12;5.70;;;4.60;;
2458;SDS011;1241;50.920;6.936;2023-04-19T10:59:22;7.67;;;5.93;;
2458;SDS011;1241;50.920;6.936;2023-04-19T11:04:10;5.63;;;5.13;;
2458;SDS011;1241;50.920;6.936;2023-04-19T11:06:59;9.33;;;7.60;;
2458;SDS011;1241;50.920;6.936;2023-04-19T11:09:29;5.97;;;5.47;;
2458;SDS011;1241;50.920;6.936;2023-04-19T11:12:04;4.43;;;4.03;;
2458;SDS011;1241;50.920;6.936;2023-04-19T11:14:35;5.17;;;4.70;;
2458;SDS011;1241;50.920;6.936;2023-04-19T11:17:15;6.37;;;4.00;;
2458;SDS011;1241;50.920;6.936;2023-04-19T11:19:58;5.73;;;5.10;;
2458;SDS011;1241;50.920;6.936;2023-04-19T11:22:30;5.50;;;4.07;;
2458;SDS011;1241;50.920;6.936;2023-04-19T11:27:48;4.90;;;4.40;;
2458;SDS011;1241;50.920;6.936;2023-04-19T11:30:20;5.57;;;4.50;;
2458;SDS011;1241;50.920;6.936;2023-04-19T11:32:56;5.30;;;4.80;;
2458;SDS011;1241;50.920;6.936;2023-04-19T11:35:23;7.00;;;4.37;;
2458;SDS011;1241;50.920;6.936;2023-04-19T11:37:51;5.03;;;4.53;;
2458;SDS011;1241;50.920;6.936;2023-04-19T11:40:18;6.03;;;5.53;;
2458;SDS011;1241;50.920;6.936;2023-04-19T11:42:45;6.67;;;5.80;;
2458;SDS011;1241;50.920;6.936;2023-04-19T11:45:11;5.53;;;4.80;;
2458;SDS011;1241;50.920;6.936;2023-04-19T11:47:48;5.90;;;4.63;;
2458;SDS011;1241;50.920;6.936;2023-04-19T11:53:08;6.30;;;4.90;;
2458;SDS011;1241;50.920;6.936;2023-04-19T11:55:35;4.23;;;3.83;;
2458;SDS011;1241;50.920;6.936;2023-04-19T11:58:01;4.50;;;4.20;;
2458;SDS011;1241;50.920;6.936;2023-04-19T12:00:27;4.47;;;3.80;;
2458;SDS011;1241;50.920;6.936;2023-04-19T12:02:54;3.53;;;3.20;;
2458;SDS011;1241;50.920;6.936;2023-04-19T12:05:20;3.90;;;3.50;;
2458;SDS011;1241;50.920;6.936;2023-04-19T12:08:05;5.63;;;4.87;;
2458;SDS011;1241;50.920;6.936;2023-04-19T12:10:35;3.80;;;3.50;;
2458;SDS011;1241;50.920;6.936;2023-04-19T12:13:01;4.57;;;4.17;;
2458;SDS011;1241;50.920;6.936;2023-04-19T12:15:41;7.00;;;4.50;;
2458;SDS011;1241;50.920;6.936;2023-04-19T12:18:07;4.60;;;3.70;;
2458;SDS011;1241;50.920;6.936;2023-04-19T12:20:34;4.90;;;3.53;;
2458;SDS011;1241;50.920;6.936;2023-04-19T12:23:01;3.50;;;3.20;;
2458;SDS011;1241;50.920;6.936;2023-04-19T12:25:31;3.33;;;3.07;;
2458;SDS011;1241;50.920;6.936;2023-04-19T12:27:58;3.50;;;3.20;;
2458;SDS011;1241;50.920;6.936;2023-04-19T12:30:24;3.60;;;2.97;;
2458;SDS011;1241;50.920;6.936;2023-04-19T12:32:51;3.50;;;2.90;;
2458;SDS011;1241;50.920;6.936;2023-04-19T12:35:23;5.53;;;3.53;;
2458;SDS011;1241;50.920;6.936;2023-04-19T12:37:51;6.30;;;4.13;;
2458;SDS011;1241;50.920;6.936;2023-04-19T12:40:18;3.87;;;3.57;;
2458;SDS011;1241;50.920;6.936;2023-04-19T12:42:44;3.57;;;3.27;;
2458;SDS011;1241;50.920;6.936;2023-04-19T12:45:11;6.07;;;4.80;;
2458;SDS011;1241;50.920;6.936;2023-04-19T12:47:38;4.50;;;4.20;;
2458;SDS011;1241;50.920;6.936;2023-04-19T12:50:04;4.53;;;4.10;;
2458;SDS011;1241;50.920;6.936;2023-04-19T12:52:30;3.30;;;3.00;;
2458;SDS011;1241;50.920;6.936;2023-04-19T12:54:56;6.60;;;5.90;;
2458;SDS011;1241;50.920;6.936;2023-04-19T12:57:22;3.80;;;3.20;;
2458;SDS011;1241;50.920;6.936;2023-04-19T12:59:47;5.73;;;3.70;;
2458;SDS011;1241;50.920;6.936;2023-04-19T13:02:13;3.63;;;3.33;;
2458;SDS011;1241;50.920;6.936;2023-04-19T13:04:39;7.40;;;5.03;;
2458;SDS011;1241;50.920;6.936;2023-04-19T13:07:04;4.80;;;3.53;;
2458;SDS011;1241;50.920;6.936;2023-04-19T13:09:30;4.47;;;3.50;;
2458;SDS011;1241;50.920;6.936;2023-04-19T13:11:56;4.47;;;4.07;;
2458;SDS011;1241;50.920;6.936;2023-04-19T13:14:22;4.50;;;3.80;;
2458;SDS011;1241;50.920;6.936;2023-04-19T13:16:50;3.90;;;3.43;;
2458;SDS011;1241;50.920;6.936;2023-04-19T13:19:15;4.23;;;3.83;;
2458;SDS011;1241;50.920;6.936;2023-04-19T13:21:41;4.33;;;3.73;;
2458;SDS011;1241;50.920;6.936;2023-04-19T13:24:07;5.90;;;4.10;;
2458;SDS011;1241;50.920;6.936;2023-04-19T13:26:32;4.07;;;3.70;;
2458;SDS011;1241;50.920;6.936;2023-04-19T13:28:58;5.80;;;4.20;;
2458;SDS011;1241;50.920;6.936;2023-04-19T13:31:25;4.72;;;4.22;;
2458;SDS011;1241;50.920;6.936;2023-04-19T13:33:51;6.37;;;4.43;;
2458;SDS011;1241;50.920;6.936;2023-04-19T13:36:17;4.57;;;3.57;;
2458;SDS011;1241;50.920;6.936;2023-04-19T13:38:43;6.20;;;4.33;;
2458;SDS011;1241;50.920;6.936;2023-04-19T13:41:09;3.90;;;3.27;;
2458;SDS011;1241;50.920;6.936;2023-04-19T13:43:35;5.00;;;4.50;;
2458;SDS011;1241;50.920;6.936;2023-04-19T13:46:01;7.23;;;4.80;;
2458;SDS011;1241;50.920;6.936;2023-04-19T13:48:26;4.20;;;3.67;;
2458;SDS011;1241;50.920;6.936;2023-04-19T13:50:53;4.28;;;3.88;;
2458;SDS011;1241;50.920;6.936;2023-04-19T13:53:19;9.63;;;4.40;;
2458;SDS011;1241;50.920;6.936;2023-04-19T13:55:45;4.60;;;3.90;;
2458;SDS011;1241;50.920;6.936;2023-04-19T13:58:11;4.83;;;4.43;;
2458;SDS011;1241;50.920;6.936;2023-04-19T14:00:36;6.53;;;3.70;;
2458;SDS011;1241;50.920;6.936;2023-04-19T14:03:02;3.97;;;3.57;;
2458;SDS011;1241;50.920;6.936;2023-04-19T14:05:29;4.78;;;4.28;;
2458;SDS011;1241;50.920;6.936;2023-04-19T14:07:54;5.50;;;5.00;;
2458;SDS011;1241;50.920;6.936;2023-04-19T14:10:20;4.23;;;3.80;;
2458;SDS011;1241;50.920;6.936;2023-04-19T14:12:46;4.27;;;3.87;;
2458;SDS011;1241;50.920;6.936;2023-04-19T14:15:13;4.90;;;4.03;;
2458;SDS011;1241;50.920;6.936;2023-04-19T14:17:38;5.53;;;3.80;;
2458;SDS011;1241;50.920;6.936;2023-04-19T14:20:05;4.63;;;4.23;;
2458;SDS011;1241;50.920;6.936;2023-04-19T14:22:31;4.20;;;3.80;;
2458;SDS011;1241;50.920;6.936;2023-04-19T14:24:57;6.33;;;5.20;;
2458;SDS011;1241;50.920;6.936;2023-04-19T14:27:23;5.07;;;4.57;;
2458;SDS011;1241;50.920;6.936;2023-04-19T14:29:50;4.60;;;4.03;;
2458;SDS011;1241;50.920;6.936;2023-04-19T14:32:16;4.60;;;3.53;;
2458;SDS011;1241;50.920;6.936;2023-04-19T14:34:41;4.70;;;4.30;;
2458;SDS011;1241;50.920;6.936;2023-04-19T14:37:07;5.07;;;4.57;;
2458;SDS011;1241;50.920;6.936;2023-04-19T14:39:33;4.83;;;4.33;;
2458;SDS011;1241;50.920;6.936;2023-04-19T14:41:58;5.67;;;4.70;;
2458;SDS011;1241;50.920;6.936;2023-04-19T14:44:24;4.90;;;4.07;;
2458;SDS011;1241;50.920;6.936;2023-04-19T14:46:50;4.50;;;4.17;;
2458;SDS011;1241;50.920;6.936;2023-04-19T14:49:16;4.85;;;4.10;;
2458;SDS011;1241;50.920;6.936;2023-04-19T14:51:42;5.50;;;4.23;;
2458;SDS011;1241;50.920;6.936;2023-04-19T14:54:08;4.90;;;4.00;;
2458;SDS011;1241;50.920;6.936;2023-04-19T14:56:33;3.70;;;3.40;;
2458;SDS011;1241;50.920;6.936;2023-04-19T14:59:03;5.40;;;4.47;;
2458;SDS011;1241;50.920;6.936;2023-04-19T15:01:29;7.20;;;5.35;;
2458;SDS011;1241;50.920;6.936;2023-04-19T15:03:54;4.60;;;4.20;;
2458;SDS011;1241;50.920;6.936;2023-04-19T15:06:20;4.43;;;4.10;;
2458;SDS011;1241;50.920;6.936;2023-04-19T15:08:46;4.70;;;4.30;;
2458;SDS011;1241;50.920;6.936;2023-04-19T15:11:11;4.20;;;3.90;;
2458;SDS011;1241;50.920;6.936;2023-04-19T15:13:37;4.20;;;3.90;;
2458;SDS011;1241;50.920;6.936;2023-04-19T15:16:03;6.17;;;5.43;;
2458;SDS011;1241;50.920;6.936;2023-04-19T15:18:29;5.13;;;4.63;;
2458;SDS011;1241;50.920;6.936;2023-04-19T15:20:55;5.90;;;3.83;;
2458;SDS011;1241;50.920;6.936;2023-04-19T15:23:24;5.30;;;4.90;;
2458;SDS011;1241;50.920;6.936;2023-04-19T15:25:50;5.85;;;3.80;;
2458;SDS011;1241;50.920;6.936;2023-04-19T15:28:16;3.97;;;3.63;;
2458;SDS011;1241;50.920;6.936;2023-04-19T15:30:42;5.07;;;3.53;;
2458;SDS011;1241;50.920;6.936;2023-04-19T15:33:08;4.40;;;3.97;;
2458;SDS011;1241;50.920;6.936;2023-04-19T15:35:33;4.73;;;4.10;;
2458;SDS011;1241;50.920;6.936;2023-04-19T15:37:59;4.63;;;4.23;;
2458;SDS011;1241;50.920;6.936;2023-04-19T15:40:25;4.50;;;4.07;;
2458;SDS011;1241;50.920;6.936;2023-04-19T15:42:52;4.65;;;4.15;;
2458;SDS011;1241;50.920;6.936;2023-04-19T15:45:18;4.10;;;3.70;;
2458;SDS011;1241;50.920;6.936;2023-04-19T15:47:44;6.13;;;4.00;;
2458;SDS011;1241;50.920;6.936;2023-04-19T15:50:09;4.77;;;3.83;;
2458;SDS011;1241;50.920;6.936;2023-04-19T15:52:35;4.00;;;3.70;;
2458;SDS011;1241;50.920;6.936;2023-04-19T15:55:01;4.93;;;4.23;;
2458;SDS011;1241;50.920;6.936;2023-04-19T15:57:27;3.75;;;3.45;;
2458;SDS011;1241;50.920;6.936;2023-04-19T15:59:52;4.70;;;4.30;;
2458;SDS011;1241;50.920;6.936;2023-04-19T16:02:18;5.60;;;4.93;;
2458;SDS011;1241;50.920;6.936;2023-04-19T16:04:47;6.70;;;4.07;;
2458;SDS011;1241;50.920;6.936;2023-04-19T16:07:12;4.40;;;3.60;;
2458;SDS011;1241;50.920;6.936;2023-04-19T16:09:38;5.97;;;4.03;;
2458;SDS011;1241;50.920;6.936;2023-04-19T16:12:04;4.03;;;3.73;;
2458;SDS011;1241;50.920;6.936;2023-04-19T16:14:30;5.40;;;4.90;;
2458;SDS011;1241;50.920;6.936;2023-04-19T16:16:55;5.33;;;4.93;;
2458;SDS011;1241;50.920;6.936;2023-04-19T16:19:21;4.50;;;3.97;;
2458;SDS011;1241;50.920;6.936;2023-04-19T16:21:47;5.90;;;3.87;;
2458;SDS011;1241;50.920;6.936;2023-04-19T16:24:12;4.03;;;3.70;;
2458;SDS011;1241;50.920;6.936;2023-04-19T16:26:38;5.07;;;3.87;;
2458;SDS011;1241;50.920;6.936;2023-04-19T16:29:04;4.20;;;3.80;;
2458;SDS011;1241;50.920;6.936;2023-04-19T16:31:29;5.20;;;4.65;;
2458;SDS011;1241;50.920;6.936;2023-04-19T16:33:55;4.88;;;4.38;;
2458;SDS011;1241;50.920;6.936;2023-04-19T16:36:22;6.13;;;4.50;;
2458;SDS011;1241;50.920;6.936;2023-04-19T16:38:47;4.77;;;4.37;;
2458;SDS011;1241;50.920;6.936;2023-04-19T16:41:13;5.43;;;4.33;;
2458;SDS011;1241;50.920;6.936;2023-04-19T16:43:39;4.97;;;4.30;;
2458;SDS011;1241;50.920;6.936;2023-04-19T16:46:04;5.97;;;4.18;;
2458;SDS011;1241;50.920;6.936;2023-04-19T16:48:31;4.20;;;3.80;;
2458;SDS011;1241;50.920;6.936;2023-04-19T16:50:56;4.30;;;3.75;;
2458;SDS011;1241;50.920;6.936;2023-04-19T16:53:22;5.80;;;3.70;;
2458;SDS011;1241;50.920;6.936;2023-04-19T16:55:48;4.60;;;4.15;;
2458;SDS011;1241;50.920;6.936;2023-04-19T16:58:13;5.60;;;4.18;;
2458;SDS011;1241;50.920;6.936;2023-04-19T17:00:39;4.93;;;3.67;;
2458;SDS011;1241;50.920;6.936;2023-04-19T17:03:05;4.60;;;4.20;;
2458;SDS011;1241;50.920;6.936;2023-04-19T17:05:33;4.23;;;3.57;;
2458;SDS011;1241;50.920;6.936;2023-04-19T17:07:58;5.28;;;4.30;;
2458;SDS011;1241;50.920;6.936;2023-04-19T17:10:24;4.68;;;4.28;;
2458;SDS011;1241;50.920;6.936;2023-04-19T17:12:51;4.90;;;3.63;;
2458;SDS011;1241;50.920;6.936;2023-04-19T17:15:19;4.20;;;3.90;;
2458;SDS011;1241;50.920;6.936;2023-04-19T17:17:45;4.10;;;3.70;;
2458;SDS011;1241;50.920;6.936;2023-04-19T17:20:10;6.43;;;4.23;;
2458;SDS011;1241;50.920;6.936;2023-04-19T17:22:37;4.80;;;3.85;;
2458;SDS011;1241;50.920;6.936;2023-04-19T17:25:03;3.80;;;3.40;;
2458;SDS011;1241;50.920;6.936;2023-04-19T17:27:29;4.10;;;3.45;;
2458;SDS011;1241;50.920;6.936;2023-04-19T17:29:55;4.50;;;3.83;;
2458;SDS011;1241;50.920;6.936;2023-04-19T17:32:21;4.30;;;3.50;;
2458;SDS011;1241;50.920;6.936;2023-04-19T17:34:47;5.05;;;3.30;;